Time;durP1;ratioP1;P1;durP2;ratioP2;P2;SDS_P1;SDS_P2;PMS_P1;PMS_P2;Temp;Humidity;BMP_temperature;BMP_pressure;BME280_temperature;BME280_humidity;BME280_pressure;Samples;Min_cycle;Max_cycle;Signal;HPM_P1;HPM_P2
2024/01/03 00:02:01;;;;;;;12.50;1.70;;;;;;;17.67;50.46;98711.13;5062486;28;20498;-62
2024/01/03 00:04:27;;;;;;;4.75;1.25;;;;;;;17.66;50.28;98695.91;5064459;28;20053;-62
2024/01/03 00:06:53;;;;;;;9.70;1.25;;;;;;;17.61;50.39;98707.44;5066702;28;20023;-62
2024/01/03 00:09:18;;;;;;;6.63;0.95;;;;;;;17.61;51.18;98731.81;5065175;28;20021;-62
2024/01/03 00:11:45;;;;;;;10.65;1.40;;;;;;;17.59;50.69;98717.63;5069122;28;20017;-62
2024/01/03 00:14:31;;;;;;;4.97;2.20;;;;;;;17.57;50.67;98725.16;5064985;28;20012;-62
2024/01/03 00:17:07;;;;;;;10.13;1.17;;;;;;;17.55;50.08;98727.28;5063359;28;20033;-62
2024/01/03 00:19:35;;;;;;;11.02;1.10;;;;;;;17.54;50.77;98736.44;5061011;28;20041;-62
2024/01/03 00:22:01;;;;;;;3.67;0.93;;;;;;;17.54;50.69;98731.03;5066690;28;20116;-62
2024/01/03 00:24:26;;;;;;;7.07;1.40;;;;;;;17.54;50.07;98724.78;5066704;28;20112;-62
2024/01/03 00:26:52;;;;;;;5.65;1.00;;;;;;;17.52;50.90;98730.41;5065751;28;20041;-62
2024/01/03 00:29:23;;;;;;;3.95;0.80;;;;;;;17.50;50.81;98746.06;5063980;28;20033;-62
2024/01/03 00:31:49;;;;;;;7.10;1.00;;;;;;;17.48;50.72;98748.13;5065267;28;20492;-62
2024/01/03 00:34:20;;;;;;;5.20;0.95;;;;;;;17.46;50.53;98761.91;5064550;28;20072;-62
2024/01/03 00:36:53;;;;;;;8.23;1.95;;;;;;;17.47;50.18;98768.16;5064817;28;20029;-62
2024/01/03 00:39:26;;;;;;;8.40;0.82;;;;;;;17.44;50.14;98771.31;5063928;28;20040;-62
2024/01/03 00:41:51;;;;;;;8.77;1.10;;;;;;;17.41;50.85;98766.34;5065063;28;20081;-62
2024/01/03 00:44:16;;;;;;;1.95;0.68;;;;;;;17.39;50.55;98779.28;5066046;28;20116;-61
2024/01/03 00:46:42;;;;;;;6.40;0.80;;;;;;;17.42;50.34;98776.09;5063812;28;20037;-62
2024/01/03 00:49:08;;;;;;;5.22;0.90;;;;;;;17.41;50.95;98779.88;5065412;28;20024;-62
2024/01/03 00:51:33;;;;;;;4.85;0.68;;;;;;;17.41;50.13;98782.56;5065537;28;20442;-62
2024/01/03 00:53:59;;;;;;;4.65;1.27;;;;;;;17.40;50.30;98783.63;5063789;28;20021;-62
2024/01/03 00:56:24;;;;;;;11.60;1.50;;;;;;;17.39;50.21;98781.97;5075478;28;20032;-62
2024/01/03 00:58:50;;;;;;;7.53;1.13;;;;;;;17.38;51.13;98799.25;5075372;28;20040;-62
2024/01/03 01:01:16;;;;;;;5.47;0.88;;;;;;;17.39;50.49;98788.19;5075385;28;20403;-62
2024/01/03 01:03:41;;;;;;;5.07;0.90;;;;;;;17.37;50.92;98794.88;5073577;28;20147;-63
2024/01/03 01:06:07;;;;;;;5.97;1.10;;;;;;;17.37;50.58;98784.06;5075176;28;20062;-62
2024/01/03 01:08:33;;;;;;;5.53;1.38;;;;;;;17.36;51.18;98793.25;5075262;28;20113;-63
2024/01/03 01:10:58;;;;;;;3.17;1.65;;;;;;;17.39;50.86;98798.22;5075230;28;20094;-62
2024/01/03 01:13:23;;;;;;;8.10;0.90;;;;;;;17.42;50.88;98793.16;5074065;28;20039;-62
2024/01/03 01:15:49;;;;;;;2.88;0.60;;;;;;;17.43;50.59;98794.00;5074871;28;20425;-62
2024/01/03 01:18:14;;;;;;;4.43;0.98;;;;;;;17.40;50.70;98789.03;5068258;28;20052;-62
2024/01/03 01:20:40;;;;;;;6.20;1.38;;;;;;;17.35;51.04;98781.59;5058299;28;20040;-62
2024/01/03 01:23:05;;;;;;;5.63;0.98;;;;;;;17.32;51.13;98802.84;5054845;28;20390;-62
2024/01/03 01:25:30;;;;;;;8.52;1.10;;;;;;;17.31;50.76;98801.19;5053657;28;20497;-62
2024/01/03 01:27:56;;;;;;;8.18;0.93;;;;;;;17.30;50.79;98786.00;5054717;28;20507;-62
2024/01/03 01:30:21;;;;;;;6.50;0.80;;;;;;;17.26;51.27;98798.31;5055412;28;20078;-62
2024/01/03 01:32:48;;;;;;;6.22;1.42;;;;;;;17.26;50.46;98803.72;5055928;28;20527;-62
2024/01/03 01:35:13;;;;;;;8.65;1.25;;;;;;;17.26;51.31;98815.38;5056809;28;20033;-62
2024/01/03 01:37:39;;;;;;;6.13;1.42;;;;;;;17.25;51.35;98823.75;5054815;28;20041;-62
2024/01/03 01:40:05;;;;;;;4.05;0.80;;;;;;;17.28;51.29;98817.88;5054425;28;20574;-62
2024/01/03 01:42:31;;;;;;;13.18;1.98;;;;;;;17.28;50.72;98834.13;5054383;28;20025;-62
2024/01/03 01:44:57;;;;;;;7.10;1.42;;;;;;;17.29;51.36;98836.59;5054381;28;20083;-62
2024/01/03 01:47:23;;;;;;;6.70;1.02;;;;;;;17.30;51.03;98826.59;5053150;28;20037;-62
2024/01/03 01:49:49;;;;;;;2.40;0.93;;;;;;;17.30;50.96;98835.56;5053074;28;20029;-62
2024/01/03 01:52:14;;;;;;;4.22;0.90;;;;;;;17.31;50.78;98836.38;5054386;28;20044;-62
2024/01/03 01:54:40;;;;;;;6.78;0.65;;;;;;;17.32;50.72;98829.91;5054139;28;20033;-62
2024/01/03 01:57:06;;;;;;;1.40;0.55;;;;;;;17.34;50.96;98844.03;5054101;28;20029;-62
2024/01/03 01:59:31;;;;;;;6.95;0.90;;;;;;;17.34;50.59;98836.75;5054258;28;20079;-62
2024/01/03 02:01:57;;;;;;;6.63;0.60;;;;;;;17.36;50.83;98837.34;5052746;28;20029;-62
2024/01/03 02:04:23;;;;;;;4.00;0.80;;;;;;;17.38;50.57;98834.44;5054076;28;20523;-62
2024/01/03 02:06:49;;;;;;;2.03;1.27;;;;;;;17.39;50.34;98836.91;5054507;28;20037;-62
2024/01/03 02:09:14;;;;;;;3.15;0.55;;;;;;;17.39;50.65;98836.91;5054029;28;20029;-62
2024/01/03 02:11:45;;;;;;;1.83;0.60;;;;;;;17.41;50.37;98845.66;5054045;28;20446;-62
2024/01/03 02:14:11;;;;;;;6.57;0.60;;;;;;;17.41;50.37;98839.41;5053813;28;20030;-62
2024/01/03 02:16:36;;;;;;;2.38;0.65;;;;;;;17.40;50.32;98848.56;5052540;28;20029;-62
2024/01/03 02:19:04;;;;;;;6.63;0.57;;;;;;;17.38;50.13;98851.53;5053756;28;20061;-62
2024/01/03 02:21:30;;;;;;;6.40;0.77;;;;;;;17.36;50.52;98848.19;5053633;28;20455;-62
2024/01/03 02:23:55;;;;;;;6.85;1.13;;;;;;;17.37;50.24;98844.44;5053185;28;20037;-62
2024/01/03 02:26:20;;;;;;;8.95;0.80;;;;;;;17.37;50.52;98843.59;5062645;28;20488;-62
2024/01/03 02:28:46;;;;;;;4.18;0.60;;;;;;;17.39;50.51;98849.66;5059079;28;20056;-62
2024/01/03 02:31:11;;;;;;;5.28;0.95;;;;;;;17.35;49.84;98845.72;5059310;28;20488;-62
2024/01/03 02:33:37;;;;;;;8.43;0.98;;;;;;;17.33;50.30;98839.69;5053635;28;20029;-62
2024/01/03 02:36:03;;;;;;;3.70;0.70;;;;;;;17.30;49.91;98850.97;5053462;28;20068;-62
2024/01/03 02:38:28;;;;;;;4.82;1.10;;;;;;;17.29;50.55;98865.53;5052118;28;20400;-62
2024/01/03 02:40:54;;;;;;;5.15;1.00;;;;;;;17.29;49.71;98852.84;5053413;28;20116;-62
2024/01/03 02:43:19;;;;;;;4.75;1.05;;;;;;;17.29;49.74;98857.41;5051844;28;20043;-62
2024/01/03 02:45:45;;;;;;;1.88;1.02;;;;;;;17.30;49.85;98848.25;5056681;28;20055;-61
2024/01/03 02:48:10;;;;;;;1.17;0.40;;;;;;;17.29;49.86;98854.72;5073330;28;20116;-62
2024/01/03 02:50:35;;;;;;;1.55;0.73;;;;;;;17.28;50.35;98855.78;5073612;28;20496;-61
2024/01/03 02:53:01;;;;;;;7.53;0.50;;;;;;;17.30;50.05;98859.91;5072449;28;20377;-62
2024/01/03 02:55:27;;;;;;;1.73;0.35;;;;;;;17.28;50.23;98863.91;5070935;28;20033;-62
2024/01/03 02:57:52;;;;;;;4.35;0.30;;;;;;;17.26;50.06;98863.25;5071919;28;20529;-62
2024/01/03 03:00:18;;;;;;;5.85;0.60;;;;;;;17.26;49.89;98868.69;5073169;28;20407;-62
2024/01/03 03:02:43;;;;;;;2.75;0.77;;;;;;;17.24;50.26;98873.50;5073503;28;20085;-62
2024/01/03 03:05:08;;;;;;;6.40;1.63;;;;;;;17.23;49.98;98874.53;5073174;28;20408;-61
2024/01/03 03:07:34;;;;;;;1.52;0.30;;;;;;;17.22;50.07;98889.97;5073351;28;20032;-62
2024/01/03 03:10:00;;;;;;;3.47;0.50;;;;;;;17.23;50.38;98880.78;5073464;28;20037;-62
2024/01/03 03:12:25;;;;;;;3.72;1.00;;;;;;;17.22;49.62;98879.13;5073147;28;20032;-62
2024/01/03 03:14:51;;;;;;;6.13;0.80;;;;;;;17.19;50.30;98890.41;5072858;28;20542;-62
2024/01/03 03:17:16;;;;;;;3.50;0.70;;;;;;;17.17;49.78;98875.44;5071867;28;20066;-62
2024/01/03 03:19:42;;;;;;;5.35;0.70;;;;;;;17.19;50.24;98884.16;5068772;28;20386;-62
2024/01/03 03:22:07;;;;;;;4.45;0.63;;;;;;;17.20;49.58;98883.09;5052725;28;20040;-62
2024/01/03 03:24:33;;;;;;;4.38;0.85;;;;;;;17.20;49.81;98891.19;5051651;28;20033;-62
2024/01/03 03:26:58;;;;;;;4.90;0.80;;;;;;;17.19;49.95;98878.72;5053349;28;20037;-62
2024/01/03 03:29:23;;;;;;;3.95;0.70;;;;;;;17.17;49.84;98897.88;5053194;28;20105;-62
2024/01/03 03:31:49;;;;;;;9.68;1.73;;;;;;;17.15;50.08;98893.75;5052866;28;20041;-62
2024/01/03 03:34:17;;;;;;;1.92;0.43;;;;;;;17.14;50.02;98892.91;5052681;28;20033;-62
2024/01/03 03:36:44;;;;;;;3.83;0.55;;;;;;;17.14;49.70;98889.41;5052731;28;20037;-62
2024/01/03 03:39:09;;;;;;;2.80;0.70;;;;;;;17.13;49.96;98896.69;5056726;28;20035;-62
2024/01/03 03:41:35;;;;;;;4.85;0.93;;;;;;;17.16;49.57;98895.41;5055522;28;20402;-61
2024/01/03 03:44:01;;;;;;;4.55;1.42;;;;;;;17.13;49.70;98887.72;5056988;28;20033;-62
2024/01/03 03:46:26;;;;;;;6.55;0.80;;;;;;;17.13;49.93;98893.13;5056788;28;20064;-62
2024/01/03 03:48:52;;;;;;;2.47;0.70;;;;;;;17.12;50.14;98894.16;5056729;28;20116;-62
2024/01/03 03:51:18;;;;;;;9.10;1.63;;;;;;;17.09;49.70;98906.25;5056809;28;20420;-62
2024/01/03 03:53:43;;;;;;;7.15;1.13;;;;;;;17.10;49.84;98902.53;5056499;28;20068;-62
2024/01/03 03:56:08;;;;;;;2.45;0.55;;;;;;;17.12;49.91;98907.69;5056995;28;20065;-62
2024/01/03 03:58:34;;;;;;;3.28;0.70;;;;;;;17.11;50.31;98897.94;5057228;28;20033;-62
2024/01/03 04:00:59;;;;;;;5.55;0.77;;;;;;;17.12;50.67;98894.16;5057486;28;20033;-61
2024/01/03 04:03:24;;;;;;;6.15;0.93;;;;;;;17.09;50.77;98886.50;5056304;28;20381;-62
2024/01/03 04:05:50;;;;;;;4.53;1.15;;;;;;;17.02;50.44;98904.66;5056490;28;20041;-61
2024/01/03 04:08:15;;;;;;;1.95;0.52;;;;;;;16.97;50.31;98908.03;5056136;28;20112;-62
2024/01/03 04:10:41;;;;;;;4.90;0.80;;;;;;;16.92;50.73;98899.72;5056022;28;20087;-62
2024/01/03 04:13:07;;;;;;;6.03;0.93;;;;;;;16.87;51.30;98913.88;5056174;28;20041;-62
2024/01/03 04:15:32;;;;;;;4.95;0.70;;;;;;;16.86;50.51;98889.78;5056054;28;20400;-62
2024/01/03 04:17:58;;;;;;;10.30;1.10;;;;;;;16.83;50.55;98895.63;5056192;28;20040;-62
2024/01/03 04:20:23;;;;;;;8.80;1.30;;;;;;;16.81;50.98;98925.56;5055042;28;20049;-62
2024/01/03 04:22:49;;;;;;;6.30;1.08;;;;;;;16.78;50.89;98926.00;5056169;28;20087;-61
2024/01/03 04:25:14;;;;;;;5.28;0.98;;;;;;;16.73;50.61;98925.81;5055901;28;20025;-62
2024/01/03 04:27:40;;;;;;;5.68;0.63;;;;;;;16.68;50.92;98922.09;5056002;28;20059;-63
2024/01/03 04:30:05;;;;;;;5.65;1.73;;;;;;;16.61;51.71;98924.03;5056279;28;20037;-65
2024/01/03 04:32:31;;;;;;;6.38;1.10;;;;;;;16.50;51.32;98922.75;5055073;28;20051;-64
2024/01/03 04:34:57;;;;;;;3.35;0.70;;;;;;;16.42;52.74;98930.28;5054494;28;20036;-65
2024/01/03 04:37:22;;;;;;;10.68;1.55;;;;;;;16.29;51.79;98914.94;5055890;28;20095;-65
2024/01/03 04:39:47;;;;;;;3.10;0.57;;;;;;;16.22;52.02;98914.94;5079132;28;20062;-64
2024/01/03 04:42:13;;;;;;;5.75;0.77;;;;;;;16.18;52.38;98908.34;5096030;28;20039;-64
2024/01/03 04:44:40;;;;;;;6.38;1.48;;;;;;;16.16;52.88;98915.00;5085882;28;20116;-67
2024/01/03 04:47:05;;;;;;;5.70;0.60;;;;;;;16.09;52.78;98903.34;5075451;28;20052;-65
2024/01/03 04:49:31;;;;;;;8.00;1.50;;;;;;;16.11;52.47;98914.78;5073203;28;20125;-64
2024/01/03 04:51:56;;;;;;;2.95;0.80;;;;;;;16.10;52.74;98910.44;5075492;28;20169;-64
2024/01/03 04:54:21;;;;;;;8.88;1.65;;;;;;;16.09;53.06;98906.91;5075313;28;20032;-63
2024/01/03 04:56:47;;;;;;;5.00;0.82;;;;;;;16.10;52.63;98899.63;5057499;28;20025;-63
2024/01/03 04:59:12;;;;;;;3.13;1.58;;;;;;;16.11;53.09;98901.25;5075289;28;20028;-63
2024/01/03 05:01:39;;;;;;;5.72;1.10;;;;;;;16.15;53.22;98889.84;5075564;28;20023;-63
2024/01/03 05:04:04;;;;;;;7.07;0.95;;;;;;;16.14;53.11;98906.25;5075244;28;20048;-63
2024/01/03 05:06:30;;;;;;;7.60;1.00;;;;;;;16.14;52.57;98895.44;5073983;28;20405;-63
2024/01/03 05:08:55;;;;;;;6.03;0.88;;;;;;;16.17;53.39;98895.03;5075010;28;20379;-63
2024/01/03 05:11:21;;;;;;;4.80;1.42;;;;;;;16.20;52.45;98891.91;5075097;28;20035;-62
2024/01/03 05:13:46;;;;;;;7.90;1.98;;;;;;;16.27;53.23;98890.03;5074069;28;20111;-62
2024/01/03 05:16:12;;;;;;;8.98;1.58;;;;;;;16.30;52.85;98890.41;5075402;28;20028;-62
2024/01/03 05:18:37;;;;;;;6.15;1.48;;;;;;;16.31;52.38;98893.94;5075538;28;20103;-63
2024/01/03 05:21:04;;;;;;;6.03;1.10;;;;;;;16.32;52.65;98890.19;5075752;28;20468;-64
2024/01/03 05:23:29;;;;;;;7.90;0.80;;;;;;;16.29;53.23;98902.28;5075895;28;20051;-63
2024/01/03 05:25:55;;;;;;;7.05;1.75;;;;;;;16.24;52.98;98907.50;5073571;28;20056;-64
2024/01/03 05:28:20;;;;;;;12.68;1.67;;;;;;;16.23;52.80;98915.78;5074958;28;20025;-64
2024/01/03 05:30:45;;;;;;;7.53;1.15;;;;;;;16.14;53.39;98903.53;5073414;28;20111;-62
2024/01/03 05:33:11;;;;;;;7.22;1.05;;;;;;;16.10;52.89;98899.63;5074620;28;20028;-64
2024/01/03 05:35:36;;;;;;;11.95;1.45;;;;;;;16.07;53.39;98891.94;5074783;28;20039;-63
2024/01/03 05:38:01;;;;;;;5.22;1.23;;;;;;;16.01;53.53;98895.47;5074799;28;20073;-65
2024/01/03 05:40:27;;;;;;;10.43;1.25;;;;;;;15.98;53.06;98890.50;5074747;28;20096;-64
2024/01/03 05:42:52;;;;;;;10.85;1.33;;;;;;;15.97;53.66;98884.28;5073659;28;20499;-64
2024/01/03 05:45:17;;;;;;;10.20;1.58;;;;;;;15.96;53.41;98890.72;5074651;28;20025;-64
2024/01/03 05:47:43;;;;;;;11.10;1.45;;;;;;;15.96;54.47;98898.00;5073416;28;20040;-65
2024/01/03 05:50:11;;;;;;;4.90;0.95;;;;;;;15.98;54.23;98895.91;5074493;28;20052;-65
2024/01/03 05:52:36;;;;;;;6.40;1.45;;;;;;;15.96;54.41;98889.91;5074797;28;20025;-63
2024/01/03 05:55:02;;;;;;;7.28;1.20;;;;;;;15.98;53.82;98877.00;5073667;28;20023;-64
2024/01/03 05:57:28;;;;;;;9.82;1.33;;;;;;;16.00;54.05;98866.81;5073781;28;20504;-64
2024/01/03 05:59:54;;;;;;;6.05;1.10;;;;;;;16.00;53.40;98866.81;5073676;28;20054;-64
2024/01/03 06:02:19;;;;;;;7.10;1.52;;;;;;;16.02;53.82;98865.59;5074641;28;20488;-63
2024/01/03 06:04:46;;;;;;;15.05;1.90;;;;;;;16.04;53.96;98857.25;5056947;28;20083;-65
2024/01/03 06:07:12;;;;;;;8.00;2.53;;;;;;;16.07;53.41;98873.88;5074500;28;20024;-64
2024/01/03 06:09:37;;;;;;;11.68;1.67;;;;;;;16.08;54.07;98869.31;5074127;28;20492;-64
2024/01/03 06:12:03;;;;;;;7.63;1.20;;;;;;;16.07;53.98;98864.94;5074237;28;20429;-64
2024/01/03 06:14:28;;;;;;;7.38;1.92;;;;;;;16.08;54.01;98869.31;5074011;28;20553;-63
2024/01/03 06:16:53;;;;;;;7.82;1.48;;;;;;;16.09;54.27;98860.13;5073848;28;20115;-64
2024/01/03 06:19:19;;;;;;;12.85;1.38;;;;;;;16.11;53.24;98858.06;5073778;28;20040;-63
2024/01/03 06:21:44;;;;;;;13.45;1.75;;;;;;;16.14;54.06;98863.03;5073693;28;20029;-63
2024/01/03 06:24:10;;;;;;;13.68;1.67;;;;;;;16.15;53.84;98853.88;5073608;28;20115;-62
2024/01/03 06:26:35;;;;;;;5.93;1.60;;;;;;;16.16;53.96;98839.34;5073826;28;20502;-62
2024/01/03 06:29:01;;;;;;;13.82;1.92;;;;;;;16.19;54.34;98842.44;5073510;28;20074;-62
2024/01/03 06:31:26;;;;;;;10.65;1.77;;;;;;;16.23;54.43;98834.75;5072577;28;20078;-62
2024/01/03 06:33:52;;;;;;;11.63;1.10;;;;;;;16.25;55.06;98840.75;5073484;28;20526;-62
2024/01/03 06:36:17;;;;;;;5.72;1.30;;;;;;;16.25;55.03;98843.44;5073548;28;20135;-62
2024/01/03 06:38:42;;;;;;;18.65;2.33;;;;;;;16.29;54.88;98832.03;5073509;28;20048;-62
2024/01/03 06:41:09;;;;;;;9.48;1.58;;;;;;;16.31;54.11;98827.22;5073591;28;20120;-62
2024/01/03 06:43:34;;;;;;;6.55;1.33;;;;;;;16.32;54.11;98811.84;5073481;28;20036;-62
2024/01/03 06:46:00;;;;;;;11.98;1.88;;;;;;;16.33;54.54;98843.25;5089036;28;20445;-62
2024/01/03 06:48:25;;;;;;;12.90;1.70;;;;;;;16.31;54.31;98837.19;5093540;28;20040;-62
2024/01/03 06:50:50;;;;;;;9.68;1.48;;;;;;;16.30;53.74;98844.47;5093574;28;20028;-62
2024/01/03 06:53:16;;;;;;;4.15;1.40;;;;;;;16.32;53.39;98855.06;5093619;28;20533;-62
2024/01/03 06:55:41;;;;;;;6.13;0.90;;;;;;;16.31;54.12;98853.41;5093589;28;20070;-62
2024/01/03 06:58:06;;;;;;;9.60;1.42;;;;;;;16.32;53.80;98860.47;5093232;28;20368;-62
2024/01/03 07:00:32;;;;;;;8.73;1.52;;;;;;;16.32;54.62;98871.28;5093248;28;20040;-62
2024/01/03 07:02:57;;;;;;;11.45;1.60;;;;;;;16.33;53.24;98868.34;5093417;28;20039;-62
2024/01/03 07:05:22;;;;;;;9.50;1.55;;;;;;;16.33;53.16;98872.97;5092964;28;20551;-62
2024/01/03 07:07:49;;;;;;;5.43;0.85;;;;;;;16.35;53.75;98886.25;5093159;28;20040;-62
2024/01/03 07:10:14;;;;;;;7.63;0.95;;;;;;;16.35;54.14;98887.06;5092956;28;20097;-62
2024/01/03 07:12:40;;;;;;;6.28;1.20;;;;;;;16.31;54.16;98907.44;5092621;28;20027;-62
2024/01/03 07:15:06;;;;;;;4.72;1.10;;;;;;;16.33;54.72;98917.00;5093150;28;20032;-61
2024/01/03 07:17:31;;;;;;;10.38;1.27;;;;;;;16.33;54.12;98922.41;5093123;28;20062;-62
2024/01/03 07:19:57;;;;;;;5.35;1.25;;;;;;;16.36;54.55;98913.03;5092917;28;20024;-61
2024/01/03 07:22:22;;;;;;;3.35;1.15;;;;;;;16.41;53.85;98915.13;5092170;28;20501;-62
2024/01/03 07:24:47;;;;;;;3.90;0.65;;;;;;;16.43;53.78;98930.06;5093125;28;20486;-62
2024/01/03 07:27:13;;;;;;;1.63;0.93;;;;;;;16.47;53.40;98930.50;5092844;28;20040;-62
2024/01/03 07:29:38;;;;;;;1.48;0.32;;;;;;;16.49;52.81;98945.44;5091944;28;20090;-62
2024/01/03 07:32:04;;;;;;;5.95;1.13;;;;;;;16.51;53.76;98935.25;5092885;28;20025;-62
2024/01/03 07:34:31;;;;;;;6.40;0.77;;;;;;;16.52;53.42;98945.03;5092854;28;20395;-63
2024/01/03 07:36:59;;;;;;;4.05;1.00;;;;;;;16.52;53.05;98942.31;5092923;28;20025;-62
2024/01/03 07:39:24;;;;;;;6.90;0.68;;;;;;;16.51;52.47;98943.34;5092867;28;20398;-62
2024/01/03 07:41:50;;;;;;;5.70;0.52;;;;;;;16.51;53.96;98951.47;5091685;28;20044;-62
2024/01/03 07:44:15;;;;;;;5.57;1.10;;;;;;;16.49;52.91;98948.16;5093386;28;20118;-61
2024/01/03 07:46:41;;;;;;;4.88;0.55;;;;;;;16.51;53.61;98946.06;5093231;28;20036;-62
2024/01/03 07:49:06;;;;;;;2.80;0.70;;;;;;;16.53;53.41;98951.22;5092963;28;20030;-62
2024/01/03 07:51:34;;;;;;;5.35;0.93;;;;;;;16.55;53.07;98952.75;5093039;28;20403;-61
2024/01/03 07:54:00;;;;;;;4.82;0.65;;;;;;;16.57;53.73;98953.34;5092879;28;20077;-62
2024/01/03 07:56:25;;;;;;;5.25;1.00;;;;;;;16.62;53.24;98963.50;5092640;28;20449;-62
2024/01/03 07:58:51;;;;;;;11.00;1.45;;;;;;;16.63;52.58;98957.91;5092488;28;20028;-62
2024/01/03 08:01:16;;;;;;;1.92;0.45;;;;;;;16.65;53.07;98965.78;5092917;28;20103;-62
2024/01/03 08:03:42;;;;;;;12.60;1.15;;;;;;;16.67;53.23;98967.22;5092436;28;20127;-62
2024/01/03 08:06:07;;;;;;;6.55;1.38;;;;;;;16.66;53.13;98965.59;5092581;28;20058;-62
2024/01/03 08:08:33;;;;;;;8.80;1.20;;;;;;;16.65;52.17;98958.50;5092691;28;20048;-62
2024/01/03 08:10:58;;;;;;;8.70;1.40;;;;;;;16.68;52.77;98968.91;5092569;28;20020;-62
2024/01/03 08:13:24;;;;;;;7.50;1.95;;;;;;;16.70;53.08;98976.78;5091175;28;20064;-61
2024/01/03 08:15:49;;;;;;;7.82;1.88;;;;;;;16.73;53.06;98981.75;5092467;28;20044;-62
2024/01/03 08:18:14;;;;;;;3.30;0.75;;;;;;;16.75;52.96;98975.09;5092625;28;20028;-62
2024/01/03 08:20:40;;;;;;;3.53;0.93;;;;;;;16.78;53.43;98980.06;5092436;28;20093;-62
2024/01/03 08:23:05;;;;;;;7.57;1.10;;;;;;;16.80;52.37;98972.59;5094324;28;20028;-63
2024/01/03 08:25:30;;;;;;;3.72;0.80;;;;;;;16.83;52.29;98977.56;5096536;28;20089;-62
2024/01/03 08:27:56;;;;;;;4.55;0.50;;;;;;;16.86;53.02;98987.94;5094919;28;20036;-62
2024/01/03 08:30:21;;;;;;;9.57;1.00;;;;;;;16.87;52.25;98986.91;5096080;28;20115;-62
2024/01/03 08:32:46;;;;;;;3.88;1.02;;;;;;;16.91;52.36;98973.81;5096153;28;20491;-62
2024/01/03 08:35:12;;;;;;;6.03;1.20;;;;;;;16.94;52.06;98975.25;5095572;28;20123;-62
2024/01/03 08:37:37;;;;;;;3.88;0.82;;;;;;;16.98;52.54;98971.88;5096374;28;20066;-62
2024/01/03 08:40:03;;;;;;;4.30;0.80;;;;;;;17.04;51.46;98978.31;5094834;28;20028;-61
2024/01/03 08:42:28;;;;;;;4.40;0.98;;;;;;;17.06;52.44;98976.19;5096066;28;20032;-62
2024/01/03 08:44:54;;;;;;;7.60;1.42;;;;;;;17.07;51.78;98985.97;5095794;28;20058;-62
2024/01/03 08:47:19;;;;;;;4.07;0.68;;;;;;;17.09;52.53;98992.00;5095860;28;20422;-62
2024/01/03 08:49:45;;;;;;;5.25;0.88;;;;;;;17.12;52.70;98986.16;5094407;28;20077;-62
2024/01/03 08:52:10;;;;;;;6.05;1.35;;;;;;;17.10;51.69;98993.66;5094574;28;20101;-61
2024/01/03 08:54:36;;;;;;;5.30;0.75;;;;;;;17.13;51.94;99004.06;5095665;28;20036;-62
2024/01/03 08:57:01;;;;;;;4.95;1.00;;;;;;;17.14;52.60;99000.31;5095567;28;20484;-62
2024/01/03 08:59:27;;;;;;;3.70;0.80;;;;;;;17.13;52.31;99004.91;5095796;28;20548;-62
2024/01/03 09:01:56;;;;;;;3.75;0.98;;;;;;;17.18;51.77;98999.66;5095620;28;20546;-61
2024/01/03 09:04:22;;;;;;;4.63;1.20;;;;;;;17.27;51.67;99011.91;5095378;28;20043;-61
2024/01/03 09:06:47;;;;;;;10.10;1.73;;;;;;;17.34;51.87;99006.44;5095307;28;20032;-62
2024/01/03 09:09:13;;;;;;;5.90;1.80;;;;;;;17.41;51.97;98999.13;5095492;28;20032;-61
2024/01/03 09:11:38;;;;;;;7.40;1.70;;;;;;;17.47;51.44;99017.19;5095448;28;20403;-62
2024/01/03 09:14:04;;;;;;;3.30;0.90;;;;;;;17.45;51.78;99009.28;5095327;28;20503;-62
2024/01/03 09:16:31;;;;;;;9.18;1.33;;;;;;;17.43;52.25;99021.38;5095224;28;20040;-61
2024/01/03 09:18:57;;;;;;;5.18;0.90;;;;;;;17.35;52.02;99022.47;5095355;28;20028;-62
2024/01/03 09:21:22;;;;;;;7.78;1.30;;;;;;;17.25;52.17;99032.13;5095424;28;20035;-61
2024/01/03 09:23:48;;;;;;;8.68;1.13;;;;;;;17.19;52.80;99035.69;5095279;28;20032;-61
2024/01/03 09:26:15;;;;;;;9.27;1.17;;;;;;;17.07;51.72;99031.97;5095612;28;20060;-62
2024/01/03 09:28:41;;;;;;;8.35;1.27;;;;;;;16.94;52.34;99056.38;5095267;28;20024;-64
2024/01/03 09:31:07;;;;;;;4.65;1.15;;;;;;;16.77;52.59;99054.16;5093810;28;20406;-64
2024/01/03 09:33:33;;;;;;;12.38;1.65;;;;;;;16.64;52.30;99062.28;5094879;28;20032;-65
2024/01/03 09:35:58;;;;;;;9.70;1.55;;;;;;;16.56;52.50;99062.50;5093131;28;20052;-65
2024/01/03 09:38:23;;;;;;;10.50;1.60;;;;;;;16.51;52.74;99058.75;5094917;28;20035;-64
2024/01/03 09:40:49;;;;;;;8.68;1.20;;;;;;;16.45;52.77;99073.94;5094660;28;20558;-64
2024/01/03 09:43:16;;;;;;;4.97;1.05;;;;;;;16.42;52.92;99066.22;5090103;28;20028;-63
2024/01/03 09:45:41;;;;;;;10.63;1.88;;;;;;;16.37;53.40;99062.50;5075198;28;20052;-63
2024/01/03 09:48:08;;;;;;;9.85;1.30;;;;;;;16.35;53.36;99075.41;5075382;28;20120;-65
2024/01/03 09:50:34;;;;;;;11.75;2.53;;;;;;;16.32;53.48;99063.13;5074646;28;20553;-65
2024/01/03 09:53:00;;;;;;;17.38;1.85;;;;;;;16.32;53.47;99073.94;5075017;28;20033;-64
2024/01/03 09:55:27;;;;;;;6.18;1.10;;;;;;;16.25;52.63;99081.22;5075334;28;20035;-64
2024/01/03 09:57:54;;;;;;;17.15;1.65;;;;;;;16.22;53.63;99076.22;5075937;28;20028;-65
2024/01/03 10:00:19;;;;;;;6.15;1.70;;;;;;;16.18;54.20;99069.59;5076387;28;20029;-65
2024/01/03 10:02:47;;;;;;;8.80;1.60;;;;;;;16.22;53.64;99077.06;5075609;28;20417;-64
2024/01/03 10:05:20;;;;;;;7.28;1.42;;;;;;;16.29;53.92;99087.88;5075576;28;20162;-64
2024/01/03 10:07:45;;;;;;;6.82;2.05;;;;;;;16.35;53.80;99072.69;5079935;28;20032;-63
2024/01/03 10:10:11;;;;;;;4.85;1.08;;;;;;;16.46;52.68;99067.50;5095609;28;20051;-63
2024/01/03 10:12:36;;;;;;;7.30;1.13;;;;;;;16.62;52.40;99061.66;5095721;28;20032;-63
2024/01/03 10:15:15;;;;;;;7.93;1.80;;;;;;;16.76;52.48;99067.88;5095349;28;20089;-63
2024/01/03 10:17:43;;;;;;;6.10;1.33;;;;;;;16.85;52.71;99063.91;5095347;28;20040;-63
2024/01/03 10:20:28;;;;;;;5.70;1.33;;;;;;;17.04;52.99;99067.56;5095363;28;20118;-62
2024/01/03 10:23:08;;;;;;;8.25;1.63;;;;;;;17.13;53.15;99063.59;5094033;28;20123;-62
2024/01/03 10:25:34;;;;;;;8.98;1.50;;;;;;;17.13;52.60;99069.00;5093891;28;20078;-62
2024/01/03 10:28:07;;;;;;;4.93;1.45;;;;;;;17.18;52.48;99071.88;5095799;28;20398;-62
2024/01/03 10:30:33;;;;;;;7.25;1.42;;;;;;;17.29;52.64;99054.97;5095689;28;20046;-62
2024/01/03 10:33:00;;;;;;;8.90;1.08;;;;;;;17.40;52.64;99065.13;5093985;28;20036;-62
2024/01/03 10:35:30;;;;;;;10.02;1.30;;;;;;;17.40;52.24;99078.66;5093986;28;20036;-61
2024/01/03 10:37:59;;;;;;;10.43;1.30;;;;;;;17.43;52.08;99070.09;5093808;28;20117;-61
2024/01/03 10:40:29;;;;;;;11.60;1.42;;;;;;;17.44;52.25;99088.03;5094000;28;20078;-62
2024/01/03 10:42:55;;;;;;;4.18;1.25;;;;;;;17.44;52.28;99077.19;5093313;28;20049;-64
2024/01/03 10:45:20;;;;;;;7.80;1.65;;;;;;;17.46;51.94;99085.91;5092510;28;20035;-63
2024/01/03 10:47:46;;;;;;;15.68;1.48;;;;;;;17.48;52.41;99083.81;5093804;28;20043;-65
2024/01/03 10:50:13;;;;;;;6.93;1.48;;;;;;;17.47;52.47;99077.56;5094043;28;20059;-65
2024/01/03 10:52:41;;;;;;;8.90;1.67;;;;;;;17.43;51.90;99080.94;5093753;28;20032;-66
2024/01/03 10:55:09;;;;;;;7.70;1.02;;;;;;;17.51;52.41;99087.97;5093795;28;20050;-65
2024/01/03 10:57:36;;;;;;;9.80;1.15;;;;;;;17.64;52.04;99088.78;5093765;28;20047;-67
2024/01/03 11:00:12;;;;;;;8.02;1.58;;;;;;;17.56;51.39;99075.47;5093520;28;20027;-66
2024/01/03 11:02:44;;;;;;;12.30;1.35;;;;;;;17.62;51.88;99077.31;5076048;28;20032;-66
2024/01/03 11:05:22;;;;;;;8.23;1.63;;;;;;;17.64;51.85;99077.94;5092961;28;20112;-65
2024/01/03 11:07:54;;;;;;;12.95;1.48;;;;;;;17.70;51.66;99079.75;5093201;28;20117;-65
2024/01/03 11:10:48;;;;;;;6.50;1.67;;;;;;;17.78;51.97;99090.34;5092569;28;20063;-66
2024/01/03 11:13:33;;;;;;;7.70;1.55;;;;;;;17.70;51.53;99092.50;5093281;28;20042;-66
2024/01/03 11:16:01;;;;;;;8.30;1.42;;;;;;;17.62;51.96;99084.59;5093454;28;20032;-66
2024/01/03 11:18:41;;;;;;;10.15;1.63;;;;;;;17.52;51.71;99068.81;5094882;28;20106;-69
2024/01/03 11:21:35;;;;;;;5.03;1.40;;;;;;;17.47;52.04;99068.63;5093715;28;20047;-68
2024/01/03 11:24:00;;;;;;;;;;;;;;;17.50;52.15;99070.09;5094602;28;20159;-67
2024/01/03 11:26:56;;;;;;;7.57;1.40;;;;;;;17.68;51.95;99059.38;5093851;28;20010;-67
2024/01/03 11:29:48;;;;;;;8.50;1.33;;;;;;;17.96;51.34;99044.38;5092696;28;20028;-67